sensor_id;sensor_type;location;lat;lon;timestamp;pressure;altitude;pressure_sealevel;temperature;humidity
67038;BME280;53940;53.204;6.590;2024-03-06T00:00:31;101850.94;;;21.96;48.19
67038;BME280;53940;53.204;6.590;2024-03-06T00:03:33;101844.81;;;21.93;47.94
67038;BME280;53940;53.204;6.590;2024-03-06T00:06:33;101850.19;;;21.93;47.89
67038;BME280;53940;53.204;6.590;2024-03-06T00:09:33;101858.25;;;21.93;47.96
67038;BME280;53940;53.204;6.590;2024-03-06T00:12:34;101863.59;;;21.93;47.82
67038;BME280;53940;53.204;6.590;2024-03-06T00:15:34;101864.59;;;21.92;47.74
67038;BME280;53940;53.204;6.590;2024-03-06T00:18:34;101859.22;;;21.92;47.78
67038;BME280;53940;53.204;6.590;2024-03-06T00:21:35;101864.59;;;21.92;47.69
67038;BME280;53940;53.204;6.590;2024-03-06T00:24:36;101868.13;;;21.93;47.53
67038;BME280;53940;53.204;6.590;2024-03-06T00:27:36;101870.69;;;21.94;47.37
67038;BME280;53940;53.204;6.590;2024-03-06T00:30:37;101879.59;;;21.95;47.51
67038;BME280;53940;53.204;6.590;2024-03-06T00:33:37;101877.78;;;21.96;47.41
67038;BME280;53940;53.204;6.590;2024-03-06T00:36:38;101869.72;;;21.96;47.49
67038;BME280;53940;53.204;6.590;2024-03-06T00:39:38;101883.88;;;21.98;47.41
67038;BME280;53940;53.204;6.590;2024-03-06T00:42:38;101881.19;;;21.98;47.43
67038;BME280;53940;53.204;6.590;2024-03-06T00:45:41;101882.88;;;21.99;47.14
67038;BME280;53940;53.204;6.590;2024-03-06T00:48:41;101888.97;;;22.01;47.26
67038;BME280;53940;53.204;6.590;2024-03-06T00:51:42;101894.34;;;22.01;46.88
67038;BME280;53940;53.204;6.590;2024-03-06T00:54:42;101890.69;;;22.02;46.95
67038;BME280;53940;53.204;6.590;2024-03-06T00:57:43;101895.09;;;22.03;46.59
67038;BME280;53940;53.204;6.590;2024-03-06T01:00:43;101885.19;;;22.03;46.77
67038;BME280;53940;53.204;6.590;2024-03-06T01:03:44;101895.81;;;22.05;46.75
67038;BME280;53940;53.204;6.590;2024-03-06T01:06:44;101891.16;;;22.07;46.54
67038;BME280;53940;53.204;6.590;2024-03-06T01:09:46;101896.53;;;22.07;46.45
67038;BME280;53940;53.204;6.590;2024-03-06T01:12:46;101898.25;;;22.08;46.44
67038;BME280;53940;53.204;6.590;2024-03-06T01:15:46;101900.69;;;22.11;46.33
67038;BME280;53940;53.204;6.590;2024-03-06T01:18:47;101897.00;;;22.12;46.25
67038;BME280;53940;53.204;6.590;2024-03-06T01:21:47;101901.28;;;22.15;46.13
67038;BME280;53940;53.204;6.590;2024-03-06T01:24:48;101891.41;;;22.15;45.92
67038;BME280;53940;53.204;6.590;2024-03-06T01:27:50;101894.81;;;22.17;45.98
67038;BME280;53940;53.204;6.590;2024-03-06T01:30:51;101899.22;;;22.18;46.05
67038;BME280;53940;53.204;6.590;2024-03-06T01:33:51;101899.97;;;22.20;46.29
67038;BME280;53940;53.204;6.590;2024-03-06T01:36:52;101904.22;;;22.23;46.19
67038;BME280;53940;53.204;6.590;2024-03-06T01:39:52;101906.75;;;22.25;46.14
67038;BME280;53940;53.204;6.590;2024-03-06T01:42:53;101915.56;;;22.27;46.53
67038;BME280;53940;53.204;6.590;2024-03-06T01:45:53;101907.38;;;22.28;46.44
67038;BME280;53940;53.204;6.590;2024-03-06T01:48:54;101912.50;;;22.31;46.29
67038;BME280;53940;53.204;6.590;2024-03-06T01:51:56;101907.97;;;22.32;46.57
67038;BME280;53940;53.204;6.590;2024-03-06T01:54:57;101907.72;;;22.35;46.39
67038;BME280;53940;53.204;6.590;2024-03-06T01:57:57;101905.75;;;22.37;46.60
67038;BME280;53940;53.204;6.590;2024-03-06T02:00:58;101909.19;;;22.39;46.58
67038;BME280;53940;53.204;6.590;2024-03-06T02:03:59;101921.66;;;22.40;46.45
67038;BME280;53940;53.204;6.590;2024-03-06T02:07:00;101915.19;;;22.43;46.41
67038;BME280;53940;53.204;6.590;2024-03-06T02:10:01;101921.25;;;22.45;46.60
67038;BME280;53940;53.204;6.590;2024-03-06T02:13:01;101926.53;;;22.46;46.25
67038;BME280;53940;53.204;6.590;2024-03-06T02:16:02;101926.25;;;22.49;46.50
67038;BME280;53940;53.204;6.590;2024-03-06T02:19:02;101929.72;;;22.52;46.36
67038;BME280;53940;53.204;6.590;2024-03-06T02:22:03;101918.97;;;22.52;46.53
67038;BME280;53940;53.204;6.590;2024-03-06T02:25:04;101923.38;;;22.53;46.35
67038;BME280;53940;53.204;6.590;2024-03-06T02:28:06;101931.16;;;22.56;46.56
67038;BME280;53940;53.204;6.590;2024-03-06T02:31:06;101927.47;;;22.57;46.52
67038;BME280;53940;53.204;6.590;2024-03-06T02:34:07;101927.38;;;22.58;46.46
67038;BME280;53940;53.204;6.590;2024-03-06T02:37:07;101922.75;;;22.60;46.31
67038;BME280;53940;53.204;6.590;2024-03-06T02:40:07;101928.94;;;22.61;46.36
67038;BME280;53940;53.204;6.590;2024-03-06T02:43:10;101925.28;;;22.62;46.47
67038;BME280;53940;53.204;6.590;2024-03-06T02:46:10;101929.69;;;22.63;46.29
67038;BME280;53940;53.204;6.590;2024-03-06T02:49:10;101933.09;;;22.65;46.37
67038;BME280;53940;53.204;6.590;2024-03-06T02:52:11;101941.88;;;22.67;46.42
67038;BME280;53940;53.204;6.590;2024-03-06T02:55:11;101928.44;;;22.67;46.33
67038;BME280;53940;53.204;6.590;2024-03-06T02:58:11;101931.88;;;22.69;46.36
67038;BME280;53940;53.204;6.590;2024-03-06T03:01:13;101931.00;;;22.69;46.11
67038;BME280;53940;53.204;6.590;2024-03-06T03:04:13;101931.88;;;22.69;46.15
67038;BME280;53940;53.204;6.590;2024-03-06T03:07:14;101932.72;;;22.70;46.34
67038;BME280;53940;53.204;6.590;2024-03-06T03:10:14;101928.19;;;22.70;46.20
67038;BME280;53940;53.204;6.590;2024-03-06T03:13:15;101933.44;;;22.72;46.25
67038;BME280;53940;53.204;6.590;2024-03-06T03:16:18;101939.78;;;22.71;46.18
67038;BME280;53940;53.204;6.590;2024-03-06T03:19:20;101945.03;;;22.72;46.19
67038;BME280;53940;53.204;6.590;2024-03-06T03:22:20;101947.72;;;22.72;46.25
67038;BME280;53940;53.204;6.590;2024-03-06T03:25:21;101947.72;;;22.72;46.26
67038;BME280;53940;53.204;6.590;2024-03-06T03:28:22;101953.09;;;22.72;46.29
67038;BME280;53940;53.204;6.590;2024-03-06T03:31:22;101954.81;;;22.73;46.24
67038;BME280;53940;53.204;6.590;2024-03-06T03:34:23;101957.50;;;22.73;46.32
67038;BME280;53940;53.204;6.590;2024-03-06T03:37:23;101956.50;;;22.74;46.41
67038;BME280;53940;53.204;6.590;2024-03-06T03:40:23;101954.81;;;22.73;46.32
67038;BME280;53940;53.204;6.590;2024-03-06T03:43:24;101952.13;;;22.73;46.38
67038;BME280;53940;53.204;6.590;2024-03-06T03:46:24;101968.25;;;22.73;46.45
67038;BME280;53940;53.204;6.590;2024-03-06T03:49:24;101967.25;;;22.74;46.44
67038;BME280;53940;53.204;6.590;2024-03-06T03:52:25;101962.88;;;22.73;46.43
67038;BME280;53940;53.204;6.590;2024-03-06T03:55:25;101967.25;;;22.74;46.35
67038;BME280;53940;53.204;6.590;2024-03-06T03:58:25;101967.25;;;22.74;46.25
67038;BME280;53940;53.204;6.590;2024-03-06T04:01:26;101961.88;;;22.74;46.46
67038;BME280;53940;53.204;6.590;2024-03-06T04:04:26;101970.94;;;22.73;46.50
67038;BME280;53940;53.204;6.590;2024-03-06T04:07:27;101971.78;;;22.74;46.50
67038;BME280;53940;53.204;6.590;2024-03-06T04:10:27;101976.31;;;22.73;46.40
67038;BME280;53940;53.204;6.590;2024-03-06T04:13:27;101972.78;;;22.73;46.42
67038;BME280;53940;53.204;6.590;2024-03-06T04:16:28;101970.09;;;22.73;46.44
67038;BME280;53940;53.204;6.590;2024-03-06T04:19:28;101975.59;;;22.71;46.46
67038;BME280;53940;53.204;6.590;2024-03-06T04:22:28;101970.09;;;22.73;46.64
67038;BME280;53940;53.204;6.590;2024-03-06T04:25:29;101985.34;;;22.72;46.40
67038;BME280;53940;53.204;6.590;2024-03-06T04:28:29;101972.91;;;22.71;46.46
67038;BME280;53940;53.204;6.590;2024-03-06T04:31:30;101976.56;;;22.70;46.50
67038;BME280;53940;53.204;6.590;2024-03-06T04:34:30;101983.66;;;22.71;46.51
67038;BME280;53940;53.204;6.590;2024-03-06T04:37:30;101989.03;;;22.71;46.47
67038;BME280;53940;53.204;6.590;2024-03-06T04:40:31;101984.63;;;22.70;46.41
67038;BME280;53940;53.204;6.590;2024-03-06T04:43:31;101980.25;;;22.69;46.62
67038;BME280;53940;53.204;6.590;2024-03-06T04:46:31;101987.31;;;22.70;46.53
67038;BME280;53940;53.204;6.590;2024-03-06T04:49:33;101986.56;;;22.68;46.60
67038;BME280;53940;53.204;6.590;2024-03-06T04:52:35;101995.50;;;22.69;46.42
67038;BME280;53940;53.204;6.590;2024-03-06T04:55:35;102000.00;;;22.68;46.58
67038;BME280;53940;53.204;6.590;2024-03-06T04:58:37;102000.88;;;22.69;46.43
67038;BME280;53940;53.204;6.590;2024-03-06T05:01:37;102004.66;;;22.66;46.43
67038;BME280;53940;53.204;6.590;2024-03-06T05:04:37;102005.63;;;22.65;46.42
67038;BME280;53940;53.204;6.590;2024-03-06T05:07:39;102006.47;;;22.66;46.48
67038;BME280;53940;53.204;6.590;2024-03-06T05:10:39;102013.69;;;22.65;46.52
67038;BME280;53940;53.204;6.590;2024-03-06T05:13:40;102013.81;;;22.64;46.39
67038;BME280;53940;53.204;6.590;2024-03-06T05:16:40;102010.28;;;22.63;46.51
67038;BME280;53940;53.204;6.590;2024-03-06T05:19:41;102022.88;;;22.63;46.59
67038;BME280;53940;53.204;6.590;2024-03-06T05:22:41;102026.66;;;22.60;46.69
67038;BME280;53940;53.204;6.590;2024-03-06T05:25:41;102029.34;;;22.60;46.83
67038;BME280;53940;53.204;6.590;2024-03-06T05:28:42;102028.47;;;22.59;46.72
67038;BME280;53940;53.204;6.590;2024-03-06T05:31:42;102026.75;;;22.58;46.81
67038;BME280;53940;53.204;6.590;2024-03-06T05:34:42;102034.94;;;22.57;46.73
67038;BME280;53940;53.204;6.590;2024-03-06T05:37:43;102042.28;;;22.55;46.65
67038;BME280;53940;53.204;6.590;2024-03-06T05:40:44;102045.94;;;22.54;46.72
67038;BME280;53940;53.204;6.590;2024-03-06T05:43:45;102046.94;;;22.53;46.80
67038;BME280;53940;53.204;6.590;2024-03-06T05:46:46;102062.19;;;22.52;46.79
67038;BME280;53940;53.204;6.590;2024-03-06T05:49:47;102068.63;;;22.49;46.57
67038;BME280;53940;53.204;6.590;2024-03-06T05:52:47;102071.31;;;22.49;46.82
67038;BME280;53940;53.204;6.590;2024-03-06T05:55:48;102071.31;;;22.49;46.74
67038;BME280;53940;53.204;6.590;2024-03-06T05:58:48;102078.63;;;22.47;46.96
67038;BME280;53940;53.204;6.590;2024-03-06T06:01:49;102081.31;;;22.47;46.92
67038;BME280;53940;53.204;6.590;2024-03-06T06:04:49;102086.81;;;22.46;46.83
67038;BME280;53940;53.204;6.590;2024-03-06T06:07:50;102089.63;;;22.44;46.76
67038;BME280;53940;53.204;6.590;2024-03-06T06:10:50;102088.78;;;22.44;46.75
67038;BME280;53940;53.204;6.590;2024-03-06T06:13:54;102090.59;;;22.43;46.90
67038;BME280;53940;53.204;6.590;2024-03-06T06:16:56;102096.09;;;22.42;46.99
67038;BME280;53940;53.204;6.590;2024-03-06T06:19:56;102103.31;;;22.41;46.81
67038;BME280;53940;53.204;6.590;2024-03-06T06:22:57;102101.47;;;22.42;46.86
67038;BME280;53940;53.204;6.590;2024-03-06T06:25:57;102106.97;;;22.40;46.92
67038;BME280;53940;53.204;6.590;2024-03-06T06:28:58;102111.59;;;22.38;46.96
67038;BME280;53940;53.204;6.590;2024-03-06T06:31:58;102111.59;;;22.38;47.00
67038;BME280;53940;53.204;6.590;2024-03-06T06:34:58;102119.78;;;22.37;47.04
67038;BME280;53940;53.204;6.590;2024-03-06T06:38:00;102114.41;;;22.37;46.82
67038;BME280;53940;53.204;6.590;2024-03-06T06:41:00;102123.31;;;22.37;46.97
67038;BME280;53940;53.204;6.590;2024-03-06T06:44:01;102127.84;;;22.37;47.07
67038;BME280;53940;53.204;6.590;2024-03-06T06:47:02;102127.84;;;22.37;47.03
67038;BME280;53940;53.204;6.590;2024-03-06T06:50:03;102140.41;;;22.36;47.11
67038;BME280;53940;53.204;6.590;2024-03-06T06:53:09;102144.78;;;22.37;47.23
67038;BME280;53940;53.204;6.590;2024-03-06T06:56:09;102144.94;;;22.35;47.21
67038;BME280;53940;53.204;6.590;2024-03-06T06:59:10;102141.38;;;22.35;46.98
67038;BME280;53940;53.204;6.590;2024-03-06T07:02:10;102139.56;;;22.35;47.01
67038;BME280;53940;53.204;6.590;2024-03-06T07:05:11;102148.56;;;22.34;47.16
67038;BME280;53940;53.204;6.590;2024-03-06T07:08:11;102153.94;;;22.34;46.82
67038;BME280;53940;53.204;6.590;2024-03-06T07:11:11;102155.78;;;22.34;47.03
67038;BME280;53940;53.204;6.590;2024-03-06T07:14:12;102148.72;;;22.33;47.06
67038;BME280;53940;53.204;6.590;2024-03-06T07:17:13;102157.72;;;22.32;46.96
67038;BME280;53940;53.204;6.590;2024-03-06T07:20:13;102165.78;;;22.32;47.20
67038;BME280;53940;53.204;6.590;2024-03-06T07:23:14;102158.69;;;22.31;47.17
67038;BME280;53940;53.204;6.590;2024-03-06T07:26:14;102158.69;;;22.31;47.34
67038;BME280;53940;53.204;6.590;2024-03-06T07:29:15;102164.94;;;22.31;47.47
67038;BME280;53940;53.204;6.590;2024-03-06T07:32:15;102166.91;;;22.29;47.25
67038;BME280;53940;53.204;6.590;2024-03-06T07:35:15;102167.72;;;22.30;47.37
67038;BME280;53940;53.204;6.590;2024-03-06T07:38:17;102177.63;;;22.29;47.61
67038;BME280;53940;53.204;6.590;2024-03-06T07:41:18;102186.63;;;22.28;47.38
67038;BME280;53940;53.204;6.590;2024-03-06T07:44:18;102185.81;;;22.28;47.34
67038;BME280;53940;53.204;6.590;2024-03-06T07:47:18;102184.94;;;22.27;47.00
67038;BME280;53940;53.204;6.590;2024-03-06T07:50:19;102191.19;;;22.28;47.39
67038;BME280;53940;53.204;6.590;2024-03-06T07:53:19;102192.16;;;22.27;47.18
67038;BME280;53940;53.204;6.590;2024-03-06T07:56:19;102193.09;;;22.26;47.22
67038;BME280;53940;53.204;6.590;2024-03-06T07:59:20;102195.78;;;22.26;47.25
67038;BME280;53940;53.204;6.590;2024-03-06T08:02:21;102196.75;;;22.25;47.27
67038;BME280;53940;53.204;6.590;2024-03-06T08:05:21;102188.84;;;22.23;47.27
67038;BME280;53940;53.204;6.590;2024-03-06T08:08:22;102197.00;;;22.21;47.19
67038;BME280;53940;53.204;6.590;2024-03-06T08:11:23;102200.69;;;22.20;47.64
67038;BME280;53940;53.204;6.590;2024-03-06T08:14:24;102199.81;;;22.20;47.53
67038;BME280;53940;53.204;6.590;2024-03-06T08:17:25;102208.59;;;22.22;47.57
67038;BME280;53940;53.204;6.590;2024-03-06T08:20:26;102216.53;;;22.24;47.48
67038;BME280;53940;53.204;6.590;2024-03-06T08:23:27;102221.06;;;22.23;47.76
67038;BME280;53940;53.204;6.590;2024-03-06T08:26:28;102219.22;;;22.24;47.52
67038;BME280;53940;53.204;6.590;2024-03-06T08:29:28;102228.97;;;22.25;47.48
67038;BME280;53940;53.204;6.590;2024-03-06T08:32:28;102233.38;;;22.26;47.56
67038;BME280;53940;53.204;6.590;2024-03-06T08:35:29;102232.44;;;22.27;47.68
67038;BME280;53940;53.204;6.590;2024-03-06T08:38:30;102241.22;;;22.29;47.58
67038;BME280;53940;53.204;6.590;2024-03-06T08:41:30;102242.94;;;22.30;47.68
67038;BME280;53940;53.204;6.590;2024-03-06T08:44:31;102242.94;;;22.30;47.70
67038;BME280;53940;53.204;6.590;2024-03-06T08:47:31;102246.47;;;22.30;47.67
67038;BME280;53940;53.204;6.590;2024-03-06T08:50:32;102250.00;;;22.31;47.53
67038;BME280;53940;53.204;6.590;2024-03-06T08:53:33;102252.69;;;22.31;47.60
67038;BME280;53940;53.204;6.590;2024-03-06T08:56:33;102250.00;;;22.31;47.60
67038;BME280;53940;53.204;6.590;2024-03-06T08:59:35;102251.72;;;22.32;47.41
67038;BME280;53940;53.204;6.590;2024-03-06T09:02:36;102259.91;;;22.30;47.64
67038;BME280;53940;53.204;6.590;2024-03-06T09:05:38;102271.50;;;22.31;47.60
67038;BME280;53940;53.204;6.590;2024-03-06T09:08:38;102267.09;;;22.30;47.71
67038;BME280;53940;53.204;6.590;2024-03-06T09:11:38;102265.28;;;22.30;47.46
67038;BME280;53940;53.204;6.590;2024-03-06T09:14:39;102272.47;;;22.30;47.34
67038;BME280;53940;53.204;6.590;2024-03-06T09:17:39;102276.84;;;22.31;47.60
67038;BME280;53940;53.204;6.590;2024-03-06T09:20:40;102274.19;;;22.31;47.69
67038;BME280;53940;53.204;6.590;2024-03-06T09:23:40;102280.53;;;22.30;47.52
67038;BME280;53940;53.204;6.590;2024-03-06T09:26:40;102284.91;;;22.31;47.72
67038;BME280;53940;53.204;6.590;2024-03-06T09:29:42;102287.59;;;22.31;47.75
67038;BME280;53940;53.204;6.590;2024-03-06T09:32:43;102288.47;;;22.31;47.50
67038;BME280;53940;53.204;6.590;2024-03-06T09:35:44;102292.97;;;22.31;47.69
67038;BME280;53940;53.204;6.590;2024-03-06T09:38:45;102300.91;;;22.32;47.62
67038;BME280;53940;53.204;6.590;2024-03-06T09:41:49;102306.41;;;22.31;47.46
67038;BME280;53940;53.204;6.590;2024-03-06T09:44:50;102311.78;;;22.31;47.57
67038;BME280;53940;53.204;6.590;2024-03-06T09:47:51;102317.13;;;22.31;47.47
67038;BME280;53940;53.204;6.590;2024-03-06T09:50:53;102320.69;;;22.31;47.65
67038;BME280;53940;53.204;6.590;2024-03-06T09:53:58;102321.53;;;22.32;47.68
67038;BME280;53940;53.204;6.590;2024-03-06T09:56:58;102325.19;;;22.31;47.63
67038;BME280;53940;53.204;6.590;2024-03-06T09:59:59;102332.53;;;22.29;47.73
67038;BME280;53940;53.204;6.590;2024-03-06T10:02:59;102332.53;;;22.29;47.64
67038;BME280;53940;53.204;6.590;2024-03-06T10:06:00;102345.84;;;22.30;47.78
67038;BME280;53940;53.204;6.590;2024-03-06T10:09:04;102344.97;;;22.30;47.80
67038;BME280;53940;53.204;6.590;2024-03-06T10:12:12;102344.97;;;22.30;47.70
67038;BME280;53940;53.204;6.590;2024-03-06T10:15:12;102348.63;;;22.29;47.51
67038;BME280;53940;53.204;6.590;2024-03-06T10:18:14;102342.41;;;22.28;47.70
67038;BME280;53940;53.204;6.590;2024-03-06T10:21:15;102349.63;;;22.28;47.66
67038;BME280;53940;53.204;6.590;2024-03-06T10:24:25;102361.34;;;22.27;47.58
67038;BME280;53940;53.204;6.590;2024-03-06T10:27:26;102371.09;;;22.28;47.60
67038;BME280;53940;53.204;6.590;2024-03-06T10:30:27;102369.38;;;22.27;47.73
67038;BME280;53940;53.204;6.590;2024-03-06T10:33:28;102365.94;;;22.25;47.75
67038;BME280;53940;53.204;6.590;2024-03-06T10:36:32;102368.63;;;22.25;47.94
67038;BME280;53940;53.204;6.590;2024-03-06T10:39:35;102368.63;;;22.25;47.80
67038;BME280;53940;53.204;6.590;2024-03-06T10:42:41;102372.28;;;22.24;47.87
67038;BME280;53940;53.204;6.590;2024-03-06T10:45:46;102374.97;;;22.24;47.98
67038;BME280;53940;53.204;6.590;2024-03-06T10:48:48;102375.94;;;22.23;47.81
67038;BME280;53940;53.204;6.590;2024-03-06T10:51:50;102368.88;;;22.21;47.99
67038;BME280;53940;53.204;6.590;2024-03-06T10:54:51;102369.84;;;22.20;47.81
67038;BME280;53940;53.204;6.590;2024-03-06T10:57:53;102374.34;;;22.20;47.93
67038;BME280;53940;53.204;6.590;2024-03-06T11:00:55;102372.53;;;22.20;48.03
67038;BME280;53940;53.204;6.590;2024-03-06T11:04:00;102384.22;;;22.19;48.14
67038;BME280;53940;53.204;6.590;2024-03-06T11:07:02;102379.81;;;22.18;48.01
67038;BME280;53940;53.204;6.590;2024-03-06T11:10:03;102387.88;;;22.18;47.96
67038;BME280;53940;53.204;6.590;2024-03-06T11:13:25;102392.50;;;22.16;47.93
67038;BME280;53940;53.204;6.590;2024-03-06T11:16:30;102397.00;;;22.16;47.82
67038;BME280;53940;53.204;6.590;2024-03-06T11:23:07;102397.00;;;22.16;47.93
67038;BME280;53940;53.204;6.590;2024-03-06T11:26:08;102401.53;;;22.15;48.08
67038;BME280;53940;53.204;6.590;2024-03-06T11:29:10;102393.59;;;22.14;48.11
67038;BME280;53940;53.204;6.590;2024-03-06T11:32:11;102396.28;;;22.14;48.22
67038;BME280;53940;53.204;6.590;2024-03-06T11:35:12;102398.09;;;22.13;47.93
67038;BME280;53940;53.204;6.590;2024-03-06T11:38:12;102397.25;;;22.13;48.12
67038;BME280;53940;53.204;6.590;2024-03-06T11:41:13;102404.44;;;22.12;48.05
67038;BME280;53940;53.204;6.590;2024-03-06T11:44:17;102399.94;;;22.13;48.30
67038;BME280;53940;53.204;6.590;2024-03-06T11:47:18;102407.13;;;22.12;48.18
67038;BME280;53940;53.204;6.590;2024-03-06T11:50:19;102414.31;;;22.12;48.03
67038;BME280;53940;53.204;6.590;2024-03-06T11:53:20;102409.94;;;22.11;48.22
67038;BME280;53940;53.204;6.590;2024-03-06T11:56:20;102409.78;;;22.12;48.01
67038;BME280;53940;53.204;6.590;2024-03-06T11:59:31;102411.75;;;22.10;48.16
67038;BME280;53940;53.204;6.590;2024-03-06T12:02:32;102407.34;;;22.09;48.16
67038;BME280;53940;53.204;6.590;2024-03-06T12:05:32;102401.97;;;22.09;48.14
67038;BME280;53940;53.204;6.590;2024-03-06T12:08:33;102408.19;;;22.10;48.23
67038;BME280;53940;53.204;6.590;2024-03-06T12:11:35;102407.34;;;22.09;47.97
67038;BME280;53940;53.204;6.590;2024-03-06T12:14:36;102410.03;;;22.09;47.97
67038;BME280;53940;53.204;6.590;2024-03-06T12:17:47;102411.94;;;22.07;47.77
67038;BME280;53940;53.204;6.590;2024-03-06T12:20:50;102417.22;;;22.08;47.92
67038;BME280;53940;53.204;6.590;2024-03-06T12:23:50;102421.75;;;22.08;47.71
67038;BME280;53940;53.204;6.590;2024-03-06T12:27:02;102417.31;;;22.07;47.76
67038;BME280;53940;53.204;6.590;2024-03-06T12:30:08;102417.31;;;22.07;47.94
67038;BME280;53940;53.204;6.590;2024-03-06T12:33:09;102416.38;;;22.08;48.11
67038;BME280;53940;53.204;6.590;2024-03-06T12:36:09;102408.31;;;22.08;47.86
67038;BME280;53940;53.204;6.590;2024-03-06T12:39:15;102414.63;;;22.07;48.05
67038;BME280;53940;53.204;6.590;2024-03-06T12:42:18;102419.06;;;22.08;48.25
67038;BME280;53940;53.204;6.590;2024-03-06T12:45:18;102418.19;;;22.07;48.36
67038;BME280;53940;53.204;6.590;2024-03-06T12:48:19;102424.44;;;22.08;48.48
67038;BME280;53940;53.204;6.590;2024-03-06T12:51:19;102413.69;;;22.08;48.54
67038;BME280;53940;53.204;6.590;2024-03-06T12:54:19;102418.09;;;22.09;48.55
67038;BME280;53940;53.204;6.590;2024-03-06T12:57:20;102413.56;;;22.10;48.65
67038;BME280;53940;53.204;6.590;2024-03-06T13:00:20;102419.81;;;22.10;48.45
67038;BME280;53940;53.204;6.590;2024-03-06T13:03:20;102419.81;;;22.10;48.77
67038;BME280;53940;53.204;6.590;2024-03-06T13:06:21;102418.81;;;22.11;48.56
67038;BME280;53940;53.204;6.590;2024-03-06T13:09:21;102415.16;;;22.12;48.67
67038;BME280;53940;53.204;6.590;2024-03-06T13:12:23;102412.47;;;22.12;48.72
67038;BME280;53940;53.204;6.590;2024-03-06T13:15:23;102414.19;;;22.13;48.76
67038;BME280;53940;53.204;6.590;2024-03-06T13:18:24;102418.63;;;22.14;48.92
67038;BME280;53940;53.204;6.590;2024-03-06T13:21:25;102425.69;;;22.15;48.77
67038;BME280;53940;53.204;6.590;2024-03-06T13:24:26;102423.84;;;22.16;48.83
67038;BME280;53940;53.204;6.590;2024-03-06T13:27:26;102425.69;;;22.15;48.73
67038;BME280;53940;53.204;6.590;2024-03-06T13:30:27;102421.16;;;22.16;48.84
67038;BME280;53940;53.204;6.590;2024-03-06T13:33:27;102426.44;;;22.17;48.71
67038;BME280;53940;53.204;6.590;2024-03-06T13:36:28;102433.53;;;22.18;48.44
67038;BME280;53940;53.204;6.590;2024-03-06T13:39:28;102424.50;;;22.19;48.43
67038;BME280;53940;53.204;6.590;2024-03-06T13:42:28;102422.78;;;22.18;48.56
67038;BME280;53940;53.204;6.590;2024-03-06T13:45:29;102429.13;;;22.17;48.43
67038;BME280;53940;53.204;6.590;2024-03-06T13:48:29;102430.00;;;22.18;48.48
67038;BME280;53940;53.204;6.590;2024-03-06T13:51:30;102438.16;;;22.16;48.55
67038;BME280;53940;53.204;6.590;2024-03-06T13:54:31;102432.78;;;22.16;48.65
67038;BME280;53940;53.204;6.590;2024-03-06T13:57:36;102434.59;;;22.16;48.38
67038;BME280;53940;53.204;6.590;2024-03-06T14:00:36;102433.75;;;22.15;48.55
67038;BME280;53940;53.204;6.590;2024-03-06T14:03:37;102433.75;;;22.15;48.56
67038;BME280;53940;53.204;6.590;2024-03-06T14:06:39;102433.75;;;22.15;48.50
67038;BME280;53940;53.204;6.590;2024-03-06T14:09:39;102433.75;;;22.15;48.78
67038;BME280;53940;53.204;6.590;2024-03-06T14:12:40;102433.00;;;22.13;48.51
67038;BME280;53940;53.204;6.590;2024-03-06T14:15:41;102441.03;;;22.13;48.46
67038;BME280;53940;53.204;6.590;2024-03-06T14:18:41;102444.69;;;22.12;48.65
67038;BME280;53940;53.204;6.590;2024-03-06T14:21:41;102448.25;;;22.13;48.52
67038;BME280;53940;53.204;6.590;2024-03-06T14:24:42;102442.00;;;22.12;48.67
67038;BME280;53940;53.204;6.590;2024-03-06T14:27:42;102437.63;;;22.11;48.50
67038;BME280;53940;53.204;6.590;2024-03-06T14:30:43;102444.69;;;22.12;48.64
67038;BME280;53940;53.204;6.590;2024-03-06T14:33:44;102444.69;;;22.12;48.74
67038;BME280;53940;53.204;6.590;2024-03-06T14:36:46;102445.69;;;22.11;48.62
67038;BME280;53940;53.204;6.590;2024-03-06T14:39:46;102452.91;;;22.11;48.53
67038;BME280;53940;53.204;6.590;2024-03-06T14:42:47;102452.03;;;22.10;48.61
67038;BME280;53940;53.204;6.590;2024-03-06T14:45:47;102452.03;;;22.10;48.61
67038;BME280;53940;53.204;6.590;2024-03-06T14:48:47;102457.38;;;22.10;48.83
67038;BME280;53940;53.204;6.590;2024-03-06T14:51:48;102461.88;;;22.10;48.69
67038;BME280;53940;53.204;6.590;2024-03-06T14:54:48;102460.19;;;22.08;48.79
67038;BME280;53940;53.204;6.590;2024-03-06T14:57:49;102455.69;;;22.09;48.75
67038;BME280;53940;53.204;6.590;2024-03-06T15:00:50;102456.66;;;22.08;48.85
67038;BME280;53940;53.204;6.590;2024-03-06T15:03:52;102458.47;;;22.07;48.71
67038;BME280;53940;53.204;6.590;2024-03-06T15:06:53;102464.72;;;22.08;48.91
67038;BME280;53940;53.204;6.590;2024-03-06T15:09:53;102470.06;;;22.08;48.84
67038;BME280;53940;53.204;6.590;2024-03-06T15:12:53;102461.25;;;22.06;48.85
67038;BME280;53940;53.204;6.590;2024-03-06T15:15:54;102469.19;;;22.07;49.03
67038;BME280;53940;53.204;6.590;2024-03-06T15:18:54;102464.72;;;22.08;48.78
67038;BME280;53940;53.204;6.590;2024-03-06T15:21:57;102468.34;;;22.07;49.02
67038;BME280;53940;53.204;6.590;2024-03-06T15:24:59;102472.88;;;22.06;49.00
67038;BME280;53940;53.204;6.590;2024-03-06T15:27:59;102473.84;;;22.05;49.06
67038;BME280;53940;53.204;6.590;2024-03-06T15:31:00;102485.41;;;22.06;48.73
67038;BME280;53940;53.204;6.590;2024-03-06T15:34:03;102480.03;;;22.06;48.84
67038;BME280;53940;53.204;6.590;2024-03-06T15:37:04;102486.38;;;22.05;48.71
67038;BME280;53940;53.204;6.590;2024-03-06T15:40:05;102487.25;;;22.05;48.75
67038;BME280;53940;53.204;6.590;2024-03-06T15:43:06;102476.63;;;22.04;48.99
67038;BME280;53940;53.204;6.590;2024-03-06T15:46:06;102473.94;;;22.04;48.98
67038;BME280;53940;53.204;6.590;2024-03-06T15:49:20;102476.63;;;22.04;49.13